sensor_id;sensor_type;location;lat;lon;timestamp;temperature;humidity
9915;DHT22;4996;48.746;9.174;2022-07-23T00:00:28;25.10;99.90
9915;DHT22;4996;48.746;9.174;2022-07-23T00:02:54;25.10;99.90
9915;DHT22;4996;48.746;9.174;2022-07-23T00:05:19;25.00;99.90
9915;DHT22;4996;48.746;9.174;2022-07-23T00:07:45;24.90;99.90
9915;DHT22;4996;48.746;9.174;2022-07-23T00:10:10;24.80;99.90
9915;DHT22;4996;48.746;9.174;2022-07-23T00:12:37;24.70;99.90
9915;DHT22;4996;48.746;9.174;2022-07-23T00:15:04;24.70;99.90
9915;DHT22;4996;48.746;9.174;2022-07-23T00:17:30;24.60;99.90
9915;DHT22;4996;48.746;9.174;2022-07-23T00:19:56;24.70;99.90
9915;DHT22;4996;48.746;9.174;2022-07-23T00:22:21;24.60;99.90
9915;DHT22;4996;48.746;9.174;2022-07-23T00:24:47;24.60;99.90
9915;DHT22;4996;48.746;9.174;2022-07-23T00:27:13;24.60;99.90
9915;DHT22;4996;48.746;9.174;2022-07-23T00:29:38;24.60;99.90
9915;DHT22;4996;48.746;9.174;2022-07-23T00:32:04;24.60;99.90
9915;DHT22;4996;48.746;9.174;2022-07-23T00:34:29;24.60;99.90
9915;DHT22;4996;48.746;9.174;2022-07-23T00:36:55;24.40;99.90
9915;DHT22;4996;48.746;9.174;2022-07-23T00:39:21;24.40;99.90
9915;DHT22;4996;48.746;9.174;2022-07-23T00:41:48;24.50;99.90
9915;DHT22;4996;48.746;9.174;2022-07-23T00:44:22;24.30;99.90
9915;DHT22;4996;48.746;9.174;2022-07-23T00:46:51;24.30;99.90
9915;DHT22;4996;48.746;9.174;2022-07-23T00:49:20;24.10;99.90
9915;DHT22;4996;48.746;9.174;2022-07-23T00:51:46;23.90;99.90
9915;DHT22;4996;48.746;9.174;2022-07-23T00:54:12;23.80;99.90
9915;DHT22;4996;48.746;9.174;2022-07-23T00:56:38;23.70;99.90
9915;DHT22;4996;48.746;9.174;2022-07-23T00:59:05;23.70;99.90
9915;DHT22;4996;48.746;9.174;2022-07-23T01:01:31;23.70;99.90
9915;DHT22;4996;48.746;9.174;2022-07-23T01:03:57;23.60;99.90
9915;DHT22;4996;48.746;9.174;2022-07-23T01:06:23;23.60;99.90
9915;DHT22;4996;48.746;9.174;2022-07-23T01:08:48;23.50;99.90
9915;DHT22;4996;48.746;9.174;2022-07-23T01:11:14;23.50;99.90
9915;DHT22;4996;48.746;9.174;2022-07-23T01:13:43;23.60;99.90
9915;DHT22;4996;48.746;9.174;2022-07-23T01:16:09;23.60;99.90
9915;DHT22;4996;48.746;9.174;2022-07-23T01:18:34;23.50;99.90
9915;DHT22;4996;48.746;9.174;2022-07-23T01:21:00;23.50;99.90
9915;DHT22;4996;48.746;9.174;2022-07-23T01:23:25;23.50;99.90
9915;DHT22;4996;48.746;9.174;2022-07-23T01:25:55;23.50;99.90
9915;DHT22;4996;48.746;9.174;2022-07-23T01:28:21;23.50;99.90
9915;DHT22;4996;48.746;9.174;2022-07-23T01:30:47;23.60;99.90
9915;DHT22;4996;48.746;9.174;2022-07-23T01:33:13;23.70;99.90
9915;DHT22;4996;48.746;9.174;2022-07-23T01:35:38;23.70;99.90
9915;DHT22;4996;48.746;9.174;2022-07-23T01:38:04;23.90;99.90
9915;DHT22;4996;48.746;9.174;2022-07-23T01:40:29;23.70;99.90
9915;DHT22;4996;48.746;9.174;2022-07-23T01:42:55;23.70;99.90
9915;DHT22;4996;48.746;9.174;2022-07-23T01:45:21;23.80;99.90
9915;DHT22;4996;48.746;9.174;2022-07-23T01:47:47;23.90;99.90
9915;DHT22;4996;48.746;9.174;2022-07-23T01:50:13;23.90;99.90
9915;DHT22;4996;48.746;9.174;2022-07-23T01:52:38;23.80;99.90
9915;DHT22;4996;48.746;9.174;2022-07-23T01:55:04;23.80;99.90
9915;DHT22;4996;48.746;9.174;2022-07-23T01:57:31;23.70;99.90
9915;DHT22;4996;48.746;9.174;2022-07-23T01:59:57;23.60;99.90
9915;DHT22;4996;48.746;9.174;2022-07-23T02:02:22;23.50;99.90
9915;DHT22;4996;48.746;9.174;2022-07-23T02:04:48;23.50;99.90
9915;DHT22;4996;48.746;9.174;2022-07-23T02:07:13;23.50;99.90
9915;DHT22;4996;48.746;9.174;2022-07-23T02:09:39;23.50;99.90
9915;DHT22;4996;48.746;9.174;2022-07-23T02:12:04;23.40;99.90
9915;DHT22;4996;48.746;9.174;2022-07-23T02:14:30;23.50;99.90
9915;DHT22;4996;48.746;9.174;2022-07-23T02:16:56;23.40;99.90
9915;DHT22;4996;48.746;9.174;2022-07-23T02:19:21;23.40;99.90
9915;DHT22;4996;48.746;9.174;2022-07-23T02:21:47;23.40;99.90
9915;DHT22;4996;48.746;9.174;2022-07-23T02:24:13;23.50;99.90
9915;DHT22;4996;48.746;9.174;2022-07-23T02:26:38;23.50;99.90
9915;DHT22;4996;48.746;9.174;2022-07-23T02:29:04;23.50;99.90
9915;DHT22;4996;48.746;9.174;2022-07-23T02:31:30;23.50;99.90
9915;DHT22;4996;48.746;9.174;2022-07-23T02:33:56;23.50;99.90
9915;DHT22;4996;48.746;9.174;2022-07-23T02:36:22;23.50;99.90
9915;DHT22;4996;48.746;9.174;2022-07-23T02:38:48;23.50;99.90
9915;DHT22;4996;48.746;9.174;2022-07-23T02:41:13;23.40;99.90
9915;DHT22;4996;48.746;9.174;2022-07-23T02:43:39;23.40;99.90
9915;DHT22;4996;48.746;9.174;2022-07-23T02:46:04;23.40;99.90
9915;DHT22;4996;48.746;9.174;2022-07-23T02:48:30;23.30;99.90
9915;DHT22;4996;48.746;9.174;2022-07-23T02:50:56;23.20;99.90
9915;DHT22;4996;48.746;9.174;2022-07-23T02:53:22;23.20;99.90
9915;DHT22;4996;48.746;9.174;2022-07-23T02:55:49;23.20;99.90
9915;DHT22;4996;48.746;9.174;2022-07-23T02:58:14;23.10;99.90
9915;DHT22;4996;48.746;9.174;2022-07-23T03:00:40;23.10;99.90
9915;DHT22;4996;48.746;9.174;2022-07-23T03:03:05;23.00;99.90
9915;DHT22;4996;48.746;9.174;2022-07-23T03:05:33;23.00;99.90
9915;DHT22;4996;48.746;9.174;2022-07-23T03:07:58;23.10;99.90
9915;DHT22;4996;48.746;9.174;2022-07-23T03:10:24;23.20;99.90
9915;DHT22;4996;48.746;9.174;2022-07-23T03:12:49;23.20;99.90
9915;DHT22;4996;48.746;9.174;2022-07-23T03:15:15;23.20;99.90
9915;DHT22;4996;48.746;9.174;2022-07-23T03:17:40;23.20;99.90
9915;DHT22;4996;48.746;9.174;2022-07-23T03:20:06;23.20;99.90
9915;DHT22;4996;48.746;9.174;2022-07-23T03:22:32;23.20;99.90
9915;DHT22;4996;48.746;9.174;2022-07-23T03:24:58;23.30;99.90
9915;DHT22;4996;48.746;9.174;2022-07-23T03:27:25;23.30;99.90
9915;DHT22;4996;48.746;9.174;2022-07-23T03:29:53;23.30;99.90
9915;DHT22;4996;48.746;9.174;2022-07-23T03:32:19;23.40;99.90
9915;DHT22;4996;48.746;9.174;2022-07-23T03:34:44;23.40;99.90
9915;DHT22;4996;48.746;9.174;2022-07-23T03:37:10;23.40;99.90
9915;DHT22;4996;48.746;9.174;2022-07-23T03:39:36;23.30;99.90
9915;DHT22;4996;48.746;9.174;2022-07-23T03:42:01;23.30;99.90
9915;DHT22;4996;48.746;9.174;2022-07-23T03:44:27;23.20;99.90
9915;DHT22;4996;48.746;9.174;2022-07-23T03:46:53;23.30;99.90
9915;DHT22;4996;48.746;9.174;2022-07-23T03:49:18;23.30;99.90
9915;DHT22;4996;48.746;9.174;2022-07-23T03:51:44;23.10;99.90
9915;DHT22;4996;48.746;9.174;2022-07-23T03:54:09;23.10;99.90
9915;DHT22;4996;48.746;9.174;2022-07-23T03:56:35;23.00;99.90
9915;DHT22;4996;48.746;9.174;2022-07-23T03:59:01;23.00;99.90
9915;DHT22;4996;48.746;9.174;2022-07-23T04:01:26;23.00;99.90
9915;DHT22;4996;48.746;9.174;2022-07-23T04:03:52;22.90;99.90
9915;DHT22;4996;48.746;9.174;2022-07-23T04:06:17;22.90;99.90
9915;DHT22;4996;48.746;9.174;2022-07-23T04:08:43;22.90;99.90
9915;DHT22;4996;48.746;9.174;2022-07-23T04:11:08;22.80;99.90
9915;DHT22;4996;48.746;9.174;2022-07-23T04:13:34;22.80;99.90
9915;DHT22;4996;48.746;9.174;2022-07-23T04:15:59;22.80;99.90
9915;DHT22;4996;48.746;9.174;2022-07-23T04:18:25;22.80;99.90
9915;DHT22;4996;48.746;9.174;2022-07-23T04:20:51;22.80;99.90
9915;DHT22;4996;48.746;9.174;2022-07-23T04:23:17;22.70;99.90
9915;DHT22;4996;48.746;9.174;2022-07-23T04:25:43;22.70;99.90
9915;DHT22;4996;48.746;9.174;2022-07-23T04:28:08;22.70;99.90
9915;DHT22;4996;48.746;9.174;2022-07-23T04:30:34;22.70;99.90
9915;DHT22;4996;48.746;9.174;2022-07-23T04:33:00;22.70;99.90
9915;DHT22;4996;48.746;9.174;2022-07-23T04:35:25;22.70;99.90
9915;DHT22;4996;48.746;9.174;2022-07-23T04:37:51;22.80;99.90
9915;DHT22;4996;48.746;9.174;2022-07-23T04:40:17;22.80;99.90
9915;DHT22;4996;48.746;9.174;2022-07-23T04:42:42;22.80;99.90
9915;DHT22;4996;48.746;9.174;2022-07-23T04:45:08;22.80;99.90
9915;DHT22;4996;48.746;9.174;2022-07-23T04:47:33;22.80;99.90
9915;DHT22;4996;48.746;9.174;2022-07-23T04:49:59;22.90;99.90
9915;DHT22;4996;48.746;9.174;2022-07-23T04:52:25;22.90;99.90
9915;DHT22;4996;48.746;9.174;2022-07-23T04:54:50;22.90;99.90
9915;DHT22;4996;48.746;9.174;2022-07-23T04:57:16;22.90;99.90
9915;DHT22;4996;48.746;9.174;2022-07-23T04:59:41;22.90;99.90
9915;DHT22;4996;48.746;9.174;2022-07-23T05:02:07;22.90;99.90
9915;DHT22;4996;48.746;9.174;2022-07-23T05:04:32;23.00;99.90
9915;DHT22;4996;48.746;9.174;2022-07-23T05:06:59;23.00;99.90
9915;DHT22;4996;48.746;9.174;2022-07-23T05:09:24;23.00;99.90
9915;DHT22;4996;48.746;9.174;2022-07-23T05:11:50;23.00;99.90
9915;DHT22;4996;48.746;9.174;2022-07-23T05:14:16;23.10;99.90
9915;DHT22;4996;48.746;9.174;2022-07-23T05:16:41;23.20;99.90
9915;DHT22;4996;48.746;9.174;2022-07-23T05:19:07;23.20;99.90
9915;DHT22;4996;48.746;9.174;2022-07-23T05:21:33;23.20;99.90
9915;DHT22;4996;48.746;9.174;2022-07-23T05:23:58;23.40;99.90
9915;DHT22;4996;48.746;9.174;2022-07-23T05:26:24;23.40;99.90
9915;DHT22;4996;48.746;9.174;2022-07-23T05:28:50;23.40;99.90
9915;DHT22;4996;48.746;9.174;2022-07-23T05:31:16;23.20;99.90
9915;DHT22;4996;48.746;9.174;2022-07-23T05:33:41;23.30;99.90
9915;DHT22;4996;48.746;9.174;2022-07-23T05:36:07;23.40;99.90
9915;DHT22;4996;48.746;9.174;2022-07-23T05:38:33;23.60;99.90
9915;DHT22;4996;48.746;9.174;2022-07-23T05:40:59;23.70;99.90
9915;DHT22;4996;48.746;9.174;2022-07-23T05:43:24;23.70;99.90
9915;DHT22;4996;48.746;9.174;2022-07-23T05:45:50;23.70;99.90
9915;DHT22;4996;48.746;9.174;2022-07-23T05:48:15;23.70;99.90
9915;DHT22;4996;48.746;9.174;2022-07-23T05:50:41;23.70;99.90
9915;DHT22;4996;48.746;9.174;2022-07-23T05:53:07;23.70;99.90
9915;DHT22;4996;48.746;9.174;2022-07-23T05:55:32;23.70;99.90
9915;DHT22;4996;48.746;9.174;2022-07-23T05:57:58;23.80;99.90
9915;DHT22;4996;48.746;9.174;2022-07-23T06:00:25;24.00;99.90
9915;DHT22;4996;48.746;9.174;2022-07-23T06:02:51;24.00;99.90
9915;DHT22;4996;48.746;9.174;2022-07-23T06:05:17;24.10;99.90
9915;DHT22;4996;48.746;9.174;2022-07-23T06:07:43;24.20;99.90
9915;DHT22;4996;48.746;9.174;2022-07-23T06:10:08;24.30;99.90
9915;DHT22;4996;48.746;9.174;2022-07-23T06:12:34;24.30;99.90
9915;DHT22;4996;48.746;9.174;2022-07-23T06:15:00;24.50;99.90
9915;DHT22;4996;48.746;9.174;2022-07-23T06:17:26;24.50;99.90
9915;DHT22;4996;48.746;9.174;2022-07-23T06:19:52;24.50;99.90
9915;DHT22;4996;48.746;9.174;2022-07-23T06:22:18;24.60;99.90
9915;DHT22;4996;48.746;9.174;2022-07-23T06:24:43;24.60;99.90
9915;DHT22;4996;48.746;9.174;2022-07-23T06:27:09;24.60;99.90
9915;DHT22;4996;48.746;9.174;2022-07-23T06:29:34;24.70;99.90
9915;DHT22;4996;48.746;9.174;2022-07-23T06:32:00;24.80;99.90
9915;DHT22;4996;48.746;9.174;2022-07-23T06:34:25;24.60;99.90
9915;DHT22;4996;48.746;9.174;2022-07-23T06:36:51;24.60;99.90
9915;DHT22;4996;48.746;9.174;2022-07-23T06:39:17;24.60;99.90
9915;DHT22;4996;48.746;9.174;2022-07-23T06:41:42;24.70;99.90
9915;DHT22;4996;48.746;9.174;2022-07-23T06:44:08;24.60;99.90
9915;DHT22;4996;48.746;9.174;2022-07-23T06:46:33;24.70;99.90
9915;DHT22;4996;48.746;9.174;2022-07-23T06:48:59;24.70;99.90
9915;DHT22;4996;48.746;9.174;2022-07-23T06:51:24;24.90;99.90
9915;DHT22;4996;48.746;9.174;2022-07-23T06:53:50;24.70;99.90
9915;DHT22;4996;48.746;9.174;2022-07-23T06:56:15;24.70;99.90
9915;DHT22;4996;48.746;9.174;2022-07-23T06:58:41;24.60;99.90
9915;DHT22;4996;48.746;9.174;2022-07-23T07:01:06;24.90;99.90
9915;DHT22;4996;48.746;9.174;2022-07-23T07:03:32;24.50;99.90
9915;DHT22;4996;48.746;9.174;2022-07-23T07:05:57;24.30;99.90
9915;DHT22;4996;48.746;9.174;2022-07-23T07:08:23;24.30;99.90
9915;DHT22;4996;48.746;9.174;2022-07-23T07:10:49;24.30;99.90
9915;DHT22;4996;48.746;9.174;2022-07-23T07:13:15;24.40;99.90
9915;DHT22;4996;48.746;9.174;2022-07-23T07:15:41;24.60;99.90
9915;DHT22;4996;48.746;9.174;2022-07-23T07:18:07;24.70;99.90
9915;DHT22;4996;48.746;9.174;2022-07-23T07:20:32;24.40;99.90
9915;DHT22;4996;48.746;9.174;2022-07-23T07:22:58;24.20;99.90
9915;DHT22;4996;48.746;9.174;2022-07-23T07:25:23;24.30;99.90
9915;DHT22;4996;48.746;9.174;2022-07-23T07:27:49;24.40;99.90
9915;DHT22;4996;48.746;9.174;2022-07-23T07:30:14;24.30;99.90
9915;DHT22;4996;48.746;9.174;2022-07-23T07:32:40;24.30;99.90
9915;DHT22;4996;48.746;9.174;2022-07-23T07:35:07;24.40;99.90
9915;DHT22;4996;48.746;9.174;2022-07-23T07:37:32;24.20;99.90
9915;DHT22;4996;48.746;9.174;2022-07-23T07:39:58;24.20;99.90
9915;DHT22;4996;48.746;9.174;2022-07-23T07:42:23;24.10;99.90
9915;DHT22;4996;48.746;9.174;2022-07-23T07:44:49;24.20;99.90
9915;DHT22;4996;48.746;9.174;2022-07-23T07:47:14;24.30;99.90
9915;DHT22;4996;48.746;9.174;2022-07-23T07:49:41;24.20;99.90
9915;DHT22;4996;48.746;9.174;2022-07-23T07:52:07;24.40;99.90
9915;DHT22;4996;48.746;9.174;2022-07-23T07:54:32;24.60;99.90
9915;DHT22;4996;48.746;9.174;2022-07-23T07:56:58;24.40;99.90
9915;DHT22;4996;48.746;9.174;2022-07-23T07:59:24;24.50;99.90
9915;DHT22;4996;48.746;9.174;2022-07-23T08:01:49;24.20;99.90
9915;DHT22;4996;48.746;9.174;2022-07-23T08:04:15;24.20;99.90
9915;DHT22;4996;48.746;9.174;2022-07-23T08:06:40;24.30;99.90
9915;DHT22;4996;48.746;9.174;2022-07-23T08:09:06;24.30;99.90
9915;DHT22;4996;48.746;9.174;2022-07-23T08:11:31;24.60;99.90
9915;DHT22;4996;48.746;9.174;2022-07-23T08:13:57;24.60;99.90
9915;DHT22;4996;48.746;9.174;2022-07-23T08:16:23;24.60;99.90
9915;DHT22;4996;48.746;9.174;2022-07-23T08:18:48;24.60;99.90
9915;DHT22;4996;48.746;9.174;2022-07-23T08:21:14;24.30;99.90
9915;DHT22;4996;48.746;9.174;2022-07-23T08:23:39;24.40;99.90
9915;DHT22;4996;48.746;9.174;2022-07-23T08:26:05;24.60;99.90
9915;DHT22;4996;48.746;9.174;2022-07-23T08:28:30;24.50;99.90
9915;DHT22;4996;48.746;9.174;2022-07-23T08:30:59;24.50;99.90
9915;DHT22;4996;48.746;9.174;2022-07-23T08:33:25;24.50;99.90
9915;DHT22;4996;48.746;9.174;2022-07-23T08:35:51;24.40;99.90
9915;DHT22;4996;48.746;9.174;2022-07-23T08:38:20;24.60;99.90
9915;DHT22;4996;48.746;9.174;2022-07-23T08:40:48;24.60;99.90
9915;DHT22;4996;48.746;9.174;2022-07-23T08:43:16;24.90;99.90
9915;DHT22;4996;48.746;9.174;2022-07-23T08:45:44;25.20;99.90
9915;DHT22;4996;48.746;9.174;2022-07-23T08:48:15;25.40;99.90
9915;DHT22;4996;48.746;9.174;2022-07-23T08:50:50;25.60;99.90
9915;DHT22;4996;48.746;9.174;2022-07-23T08:53:17;25.80;99.90
9915;DHT22;4996;48.746;9.174;2022-07-23T08:55:44;26.10;99.90
9915;DHT22;4996;48.746;9.174;2022-07-23T08:58:11;26.60;99.90
9915;DHT22;4996;48.746;9.174;2022-07-23T09:00:37;27.00;99.90
9915;DHT22;4996;48.746;9.174;2022-07-23T09:03:03;27.60;99.90
9915;DHT22;4996;48.746;9.174;2022-07-23T09:05:29;27.80;99.90
9915;DHT22;4996;48.746;9.174;2022-07-23T09:10:29;27.90;99.90
9915;DHT22;4996;48.746;9.174;2022-07-23T09:12:56;27.90;99.90
9915;DHT22;4996;48.746;9.174;2022-07-23T09:15:22;28.40;99.90
9915;DHT22;4996;48.746;9.174;2022-07-23T09:17:47;28.70;99.90
9915;DHT22;4996;48.746;9.174;2022-07-23T09:20:15;29.10;99.90
9915;DHT22;4996;48.746;9.174;2022-07-23T09:22:45;29.30;99.90
9915;DHT22;4996;48.746;9.174;2022-07-23T09:25:17;29.20;99.90
9915;DHT22;4996;48.746;9.174;2022-07-23T09:27:57;29.40;99.90
9915;DHT22;4996;48.746;9.174;2022-07-23T09:30:25;29.30;99.90
9915;DHT22;4996;48.746;9.174;2022-07-23T09:33:13;29.60;99.90
9915;DHT22;4996;48.746;9.174;2022-07-23T09:38:18;30.50;99.90
9915;DHT22;4996;48.746;9.174;2022-07-23T09:40:44;30.80;99.20
9915;DHT22;4996;48.746;9.174;2022-07-23T09:43:11;30.90;99.20
9915;DHT22;4996;48.746;9.174;2022-07-23T09:45:36;30.90;97.60
9915;DHT22;4996;48.746;9.174;2022-07-23T09:48:15;30.70;96.30
9915;DHT22;4996;48.746;9.174;2022-07-23T09:50:44;30.40;96.90
9915;DHT22;4996;48.746;9.174;2022-07-23T09:53:25;30.40;96.70
9915;DHT22;4996;48.746;9.174;2022-07-23T09:55:53;30.10;97.10
9915;DHT22;4996;48.746;9.174;2022-07-23T09:58:21;30.10;98.00
9915;DHT22;4996;48.746;9.174;2022-07-23T10:00:48;29.80;98.20
9915;DHT22;4996;48.746;9.174;2022-07-23T10:03:15;29.70;97.60
9915;DHT22;4996;48.746;9.174;2022-07-23T10:05:41;29.60;97.90
9915;DHT22;4996;48.746;9.174;2022-07-23T10:08:11;29.60;98.00
9915;DHT22;4996;48.746;9.174;2022-07-23T10:10:39;29.60;98.10
9915;DHT22;4996;48.746;9.174;2022-07-23T10:13:05;29.90;97.70
9915;DHT22;4996;48.746;9.174;2022-07-23T10:15:50;30.00;97.70
9915;DHT22;4996;48.746;9.174;2022-07-23T10:18:16;30.10;97.50
9915;DHT22;4996;48.746;9.174;2022-07-23T10:20:42;30.20;97.70
9915;DHT22;4996;48.746;9.174;2022-07-23T10:23:30;29.90;97.70
9915;DHT22;4996;48.746;9.174;2022-07-23T10:26:10;29.80;97.90
9915;DHT22;4996;48.746;9.174;2022-07-23T10:32:00;29.90;98.60
9915;DHT22;4996;48.746;9.174;2022-07-23T10:35:07;29.60;98.60
9915;DHT22;4996;48.746;9.174;2022-07-23T10:37:41;29.60;98.70
9915;DHT22;4996;48.746;9.174;2022-07-23T10:40:14;29.60;98.90
9915;DHT22;4996;48.746;9.174;2022-07-23T10:42:40;29.50;98.40
9915;DHT22;4996;48.746;9.174;2022-07-23T10:45:26;29.70;98.40
9915;DHT22;4996;48.746;9.174;2022-07-23T10:47:53;29.90;97.50
9915;DHT22;4996;48.746;9.174;2022-07-23T10:50:20;30.20;97.40
9915;DHT22;4996;48.746;9.174;2022-07-23T10:53:09;30.40;97.30
9915;DHT22;4996;48.746;9.174;2022-07-23T10:58:02;29.90;96.40
9915;DHT22;4996;48.746;9.174;2022-07-23T11:00:34;30.00;96.50
9915;DHT22;4996;48.746;9.174;2022-07-23T11:03:03;30.00;96.00
9915;DHT22;4996;48.746;9.174;2022-07-23T11:05:42;30.00;95.90
9915;DHT22;4996;48.746;9.174;2022-07-23T11:08:18;30.10;95.90
9915;DHT22;4996;48.746;9.174;2022-07-23T11:10:51;30.30;95.60
9915;DHT22;4996;48.746;9.174;2022-07-23T11:13:44;30.00;95.90
9915;DHT22;4996;48.746;9.174;2022-07-23T11:16:21;29.40;96.90
9915;DHT22;4996;48.746;9.174;2022-07-23T11:18:54;29.50;96.80
9915;DHT22;4996;48.746;9.174;2022-07-23T11:24:07;30.30;95.90
9915;DHT22;4996;48.746;9.174;2022-07-23T11:32:20;29.80;96.50
9915;DHT22;4996;48.746;9.174;2022-07-23T11:34:50;29.90;96.80
9915;DHT22;4996;48.746;9.174;2022-07-23T11:38:03;30.20;96.50
9915;DHT22;4996;48.746;9.174;2022-07-23T11:40:20;30.20;96.30
9915;DHT22;4996;48.746;9.174;2022-07-23T11:42:57;30.00;96.40
9915;DHT22;4996;48.746;9.174;2022-07-23T11:45:31;30.10;96.30
9915;DHT22;4996;48.746;9.174;2022-07-23T11:47:57;30.10;96.40
9915;DHT22;4996;48.746;9.174;2022-07-23T11:50:24;30.30;96.60
9915;DHT22;4996;48.746;9.174;2022-07-23T11:52:51;31.00;96.30
9915;DHT22;4996;48.746;9.174;2022-07-23T11:55:16;31.30;95.90
9915;DHT22;4996;48.746;9.174;2022-07-23T11:57:43;30.80;96.10
9915;DHT22;4996;48.746;9.174;2022-07-23T12:00:15;30.40;96.10
9915;DHT22;4996;48.746;9.174;2022-07-23T12:02:53;30.30;96.30
9915;DHT22;4996;48.746;9.174;2022-07-23T12:05:31;30.00;96.90
9915;DHT22;4996;48.746;9.174;2022-07-23T12:07:57;30.50;96.60
9915;DHT22;4996;48.746;9.174;2022-07-23T12:10:28;30.70;96.20
9915;DHT22;4996;48.746;9.174;2022-07-23T12:12:59;31.00;96.30
9915;DHT22;4996;48.746;9.174;2022-07-23T12:15:28;31.60;95.90
9915;DHT22;4996;48.746;9.174;2022-07-23T12:17:56;32.50;95.30
9915;DHT22;4996;48.746;9.174;2022-07-23T12:20:25;33.20;93.70
9915;DHT22;4996;48.746;9.174;2022-07-23T12:22:53;33.20;92.80
9915;DHT22;4996;48.746;9.174;2022-07-23T12:25:26;33.40;92.20
9915;DHT22;4996;48.746;9.174;2022-07-23T12:30:47;33.80;91.10
9915;DHT22;4996;48.746;9.174;2022-07-23T12:33:30;33.90;91.50
9915;DHT22;4996;48.746;9.174;2022-07-23T12:36:01;33.80;91.20
9915;DHT22;4996;48.746;9.174;2022-07-23T12:38:41;33.60;90.90
9915;DHT22;4996;48.746;9.174;2022-07-23T12:41:08;32.30;91.10
9915;DHT22;4996;48.746;9.174;2022-07-23T12:43:36;32.00;91.50
9915;DHT22;4996;48.746;9.174;2022-07-23T12:46:12;31.70;91.40
9915;DHT22;4996;48.746;9.174;2022-07-23T12:51:24;31.80;92.00
9915;DHT22;4996;48.746;9.174;2022-07-23T12:53:52;31.90;92.30
9915;DHT22;4996;48.746;9.174;2022-07-23T12:56:27;32.70;91.50
9915;DHT22;4996;48.746;9.174;2022-07-23T12:59:06;33.10;90.90
9915;DHT22;4996;48.746;9.174;2022-07-23T13:01:37;32.70;90.80
9915;DHT22;4996;48.746;9.174;2022-07-23T13:06:44;32.40;90.50
9915;DHT22;4996;48.746;9.174;2022-07-23T13:09:13;32.90;90.70
9915;DHT22;4996;48.746;9.174;2022-07-23T13:11:39;33.40;90.30
9915;DHT22;4996;48.746;9.174;2022-07-23T13:14:05;33.50;90.50
9915;DHT22;4996;48.746;9.174;2022-07-23T13:16:31;33.50;90.30
9915;DHT22;4996;48.746;9.174;2022-07-23T13:18:58;33.20;90.30
9915;DHT22;4996;48.746;9.174;2022-07-23T13:21:24;33.20;90.70
9915;DHT22;4996;48.746;9.174;2022-07-23T13:23:50;33.40;90.50
9915;DHT22;4996;48.746;9.174;2022-07-23T13:26:16;33.50;89.50
9915;DHT22;4996;48.746;9.174;2022-07-23T13:28:42;33.60;86.60
9915;DHT22;4996;48.746;9.174;2022-07-23T13:31:08;33.40;87.40
9915;DHT22;4996;48.746;9.174;2022-07-23T13:33:33;33.20;87.00
9915;DHT22;4996;48.746;9.174;2022-07-23T13:35:59;33.30;86.00
9915;DHT22;4996;48.746;9.174;2022-07-23T13:38:25;33.00;86.30
9915;DHT22;4996;48.746;9.174;2022-07-23T13:40:52;32.80;87.10
9915;DHT22;4996;48.746;9.174;2022-07-23T13:43:19;33.40;86.10
9915;DHT22;4996;48.746;9.174;2022-07-23T13:45:45;33.30;85.10
9915;DHT22;4996;48.746;9.174;2022-07-23T13:48:12;32.70;85.40
9915;DHT22;4996;48.746;9.174;2022-07-23T13:50:39;32.00;86.80
9915;DHT22;4996;48.746;9.174;2022-07-23T13:53:07;31.40;88.20
9915;DHT22;4996;48.746;9.174;2022-07-23T13:55:34;31.00;88.40
9915;DHT22;4996;48.746;9.174;2022-07-23T13:58:00;30.80;89.20
9915;DHT22;4996;48.746;9.174;2022-07-23T14:00:27;30.90;88.80
9915;DHT22;4996;48.746;9.174;2022-07-23T14:02:54;30.70;89.40
9915;DHT22;4996;48.746;9.174;2022-07-23T14:05:20;30.70;90.10
9915;DHT22;4996;48.746;9.174;2022-07-23T14:07:46;30.60;90.10
9915;DHT22;4996;48.746;9.174;2022-07-23T14:10:15;30.50;90.00
9915;DHT22;4996;48.746;9.174;2022-07-23T14:12:41;30.20;90.40
9915;DHT22;4996;48.746;9.174;2022-07-23T14:15:07;30.20;90.70
9915;DHT22;4996;48.746;9.174;2022-07-23T14:17:35;30.30;90.20
9915;DHT22;4996;48.746;9.174;2022-07-23T14:20:02;30.30;90.60
9915;DHT22;4996;48.746;9.174;2022-07-23T14:22:27;30.30;90.70
9915;DHT22;4996;48.746;9.174;2022-07-23T14:24:53;30.60;90.40
9915;DHT22;4996;48.746;9.174;2022-07-23T14:27:18;30.70;90.20
9915;DHT22;4996;48.746;9.174;2022-07-23T14:29:44;30.30;90.60
9915;DHT22;4996;48.746;9.174;2022-07-23T14:32:10;30.20;90.90
9915;DHT22;4996;48.746;9.174;2022-07-23T14:34:35;30.30;90.50
9915;DHT22;4996;48.746;9.174;2022-07-23T14:37:01;30.30;90.20
9915;DHT22;4996;48.746;9.174;2022-07-23T14:39:27;30.30;90.30
9915;DHT22;4996;48.746;9.174;2022-07-23T14:41:53;30.20;89.00
9915;DHT22;4996;48.746;9.174;2022-07-23T14:44:18;30.10;89.30
9915;DHT22;4996;48.746;9.174;2022-07-23T14:46:44;30.30;89.50
9915;DHT22;4996;48.746;9.174;2022-07-23T14:49:09;30.40;90.00
9915;DHT22;4996;48.746;9.174;2022-07-23T14:51:35;30.60;89.50
9915;DHT22;4996;48.746;9.174;2022-07-23T14:54:02;30.40;88.40
9915;DHT22;4996;48.746;9.174;2022-07-23T14:56:28;30.50;89.30
9915;DHT22;4996;48.746;9.174;2022-07-23T14:58:53;30.20;88.10
9915;DHT22;4996;48.746;9.174;2022-07-23T15:01:21;30.10;88.10
9915;DHT22;4996;48.746;9.174;2022-07-23T15:03:47;30.10;89.00
9915;DHT22;4996;48.746;9.174;2022-07-23T15:06:13;30.00;88.30
9915;DHT22;4996;48.746;9.174;2022-07-23T15:08:39;30.00;87.80
9915;DHT22;4996;48.746;9.174;2022-07-23T15:11:04;30.00;88.00
9915;DHT22;4996;48.746;9.174;2022-07-23T15:13:30;29.90;87.60
9915;DHT22;4996;48.746;9.174;2022-07-23T15:15:55;30.00;88.20
9915;DHT22;4996;48.746;9.174;2022-07-23T15:18:21;30.10;88.00
9915;DHT22;4996;48.746;9.174;2022-07-23T15:20:47;29.90;88.80
9915;DHT22;4996;48.746;9.174;2022-07-23T15:23:12;29.80;89.60
9915;DHT22;4996;48.746;9.174;2022-07-23T15:25:38;30.00;89.30
9915;DHT22;4996;48.746;9.174;2022-07-23T15:28:04;29.90;90.20
9915;DHT22;4996;48.746;9.174;2022-07-23T15:30:29;30.10;90.30
9915;DHT22;4996;48.746;9.174;2022-07-23T15:32:55;30.10;90.60
9915;DHT22;4996;48.746;9.174;2022-07-23T15:35:23;30.00;90.30
9915;DHT22;4996;48.746;9.174;2022-07-23T15:37:48;30.10;90.30
9915;DHT22;4996;48.746;9.174;2022-07-23T15:40:14;30.20;90.30
9915;DHT22;4996;48.746;9.174;2022-07-23T15:42:39;29.80;90.90
9915;DHT22;4996;48.746;9.174;2022-07-23T15:45:05;29.90;91.00
9915;DHT22;4996;48.746;9.174;2022-07-23T15:47:31;30.00;91.00
9915;DHT22;4996;48.746;9.174;2022-07-23T15:49:57;29.90;91.00
9915;DHT22;4996;48.746;9.174;2022-07-23T15:52:22;29.90;91.00
9915;DHT22;4996;48.746;9.174;2022-07-23T15:54:48;29.70;91.20
9915;DHT22;4996;48.746;9.174;2022-07-23T15:57:14;29.50;91.20
9915;DHT22;4996;48.746;9.174;2022-07-23T15:59:40;29.60;90.90
9915;DHT22;4996;48.746;9.174;2022-07-23T16:02:06;29.60;90.70
9915;DHT22;4996;48.746;9.174;2022-07-23T16:04:32;29.50;90.90
9915;DHT22;4996;48.746;9.174;2022-07-23T16:06:58;29.40;90.80
9915;DHT22;4996;48.746;9.174;2022-07-23T16:09:24;29.40;90.80
9915;DHT22;4996;48.746;9.174;2022-07-23T16:11:50;29.50;90.80
9915;DHT22;4996;48.746;9.174;2022-07-23T16:14:16;29.60;91.20
9915;DHT22;4996;48.746;9.174;2022-07-23T16:16:42;29.80;91.20
9915;DHT22;4996;48.746;9.174;2022-07-23T16:19:07;29.70;90.60
9915;DHT22;4996;48.746;9.174;2022-07-23T16:21:33;29.70;90.70
9915;DHT22;4996;48.746;9.174;2022-07-23T16:23:58;29.80;90.50
9915;DHT22;4996;48.746;9.174;2022-07-23T16:26:24;29.80;90.90
9915;DHT22;4996;48.746;9.174;2022-07-23T16:28:51;29.60;90.90